Time,TemperatureF,DewpointF,PressureIn,WindDirection,WindDirectionDegrees,WindSpeedMPH,WindSpeedGustMPH,Humidity,HourlyPrecipIn,Conditions,Clouds,dailyrainin,SoftwareType,DateUTC
2013-07-06 00:03:00,74.3,53.9,30.21,North,0,0.0,4.0,49,0.00,,,0.00,VWS V12.08,2013-07-06 04:03:00,
2013-07-06 00:04:00,74.3,53.9,30.21,North,0,0.0,0.0,49,0.00,,,0.00,VWS V12.08,2013-07-06 04:04:00,
2013-07-06 00:10:00,74.3,54.5,30.21,North,4,0.0,0.0,50,0.00,,,0.00,VWS V12.08,2013-07-06 04:10:00,
2013-07-06 00:16:00,74.3,54.5,30.21,WSW,246,0.0,0.0,50,0.00,,,0.00,VWS V12.08,2013-07-06 04:16:00,
2013-07-06 00:20:00,74.3,54.5,30.21,West,274,0.0,0.0,50,0.00,,,0.00,VWS V12.08,2013-07-06 04:20:00,
2013-07-06 00:31:00,74.3,55.0,30.21,West,265,0.0,0.0,51,0.00,,,0.00,VWS V12.08,2013-07-06 04:31:00,
2013-07-06 00:35:00,74.3,55.0,30.21,SSW,196,0.0,0.0,51,0.00,,,0.00,VWS V12.08,2013-07-06 04:35:00,
2013-07-06 00:40:00,74.3,55.0,30.21,NNE,33,0.0,0.0,51,0.00,,,0.00,VWS V12.08,2013-07-06 04:40:00,
2013-07-06 00:46:00,74.3,55.6,30.21,North,353,0.0,2.7,52,0.00,,,0.00,VWS V12.08,2013-07-06 04:46:00,
2013-07-06 00:55:00,74.3,55.0,30.21,WSW,237,0.0,2.7,51,0.00,,,0.00,VWS V12.08,2013-07-06 04:55:00,
2013-07-06 01:04:00,74.3,55.0,30.21,WSW,237,0.0,2.7,51,0.00,,,0.00,VWS V12.08,2013-07-06 05:04:00,
2013-07-06 01:10:00,74.1,55.4,30.21,NW,305,0.0,2.2,52,0.00,,,0.00,VWS V12.08,2013-07-06 05:10:00,
2013-07-06 01:16:00,74.3,55.0,30.21,West,274,0.0,2.2,51,0.00,,,0.00,VWS V12.08,2013-07-06 05:16:00,
2013-07-06 01:25:00,74.3,55.0,30.21,WNW,295,0.0,4.5,51,0.00,,,0.00,VWS V12.08,2013-07-06 05:25:00,
2013-07-06 01:31:00,74.3,55.0,30.21,NNW,327,0.0,4.5,51,0.00,,,0.00,VWS V12.08,2013-07-06 05:31:00,
2013-07-06 01:40:00,74.3,54.5,30.21,NNW,331,0.0,4.5,50,0.00,,,0.00,VWS V12.08,2013-07-06 05:40:00,
2013-07-06 01:46:00,74.3,54.5,30.21,NW,320,0.0,0.0,50,0.00,,,0.00,VWS V12.08,2013-07-06 05:46:00,
2013-07-06 01:55:00,74.5,54.1,30.21,NW,320,0.0,0.0,49,0.00,,,0.00,VWS V12.08,2013-07-06 05:55:00,
2013-07-06 02:04:00,74.5,54.1,30.21,NW,311,0.0,0.0,49,0.00,,,0.00,VWS V12.08,2013-07-06 06:04:00,
2013-07-06 02:10:00,74.5,53.5,30.21,NNE,19,0.0,3.6,48,0.00,,,0.00,VWS V12.08,2013-07-06 06:10:00,
2013-07-06 02:16:00,74.5,53.5,30.21,WNW,287,0.0,3.6,48,0.00,,,0.00,VWS V12.08,2013-07-06 06:16:00,
2013-07-06 02:25:00,74.5,53.0,30.21,North,7,0.0,0.0,47,0.00,,,0.00,VWS V12.08,2013-07-06 06:25:00,
2013-07-06 02:31:00,74.5,53.0,30.21,NW,314,0.0,0.0,47,0.00,,,0.00,VWS V12.08,2013-07-06 06:31:00,
2013-07-06 02:40:00,74.3,53.4,30.21,NW,314,0.0,0.0,48,0.00,,,0.00,VWS V12.08,2013-07-06 06:40:00,
2013-07-06 02:46:00,74.3,53.4,30.21,NW,320,0.0,0.0,48,0.00,,,0.00,VWS V12.08,2013-07-06 06:46:00,
2013-07-06 02:55:00,74.1,53.2,30.21,NW,325,0.0,0.0,48,0.00,,,0.00,VWS V12.08,2013-07-06 06:55:00,
2013-07-06 03:04:00,74.1,53.2,30.21,NW,325,0.0,0.0,48,0.00,,,0.00,VWS V12.08,2013-07-06 07:04:00,
2013-07-06 03:10:00,74.1,53.8,30.21,NW,325,0.0,0.0,49,0.00,,,0.00,VWS V12.08,2013-07-06 07:10:00,
2013-07-06 03:16:00,73.9,53.6,30.21,NW,325,0.0,0.0,49,0.00,,,0.00,VWS V12.08,2013-07-06 07:16:00,
2013-07-06 03:25:00,73.9,54.2,30.21,West,280,0.0,0.0,50,0.00,,,0.00,VWS V12.08,2013-07-06 07:25:00,
2013-07-06 03:31:00,73.8,54.0,30.21,West,280,0.0,0.0,50,0.00,,,0.00,VWS V12.08,2013-07-06 07:31:00,
2013-07-06 03:41:00,73.8,54.5,30.21,North,353,0.0,0.0,51,0.00,,,0.00,VWS V12.08,2013-07-06 07:41:00,
2013-07-06 03:46:00,73.8,54.5,30.21,North,353,0.0,0.0,51,0.00,,,0.00,VWS V12.08,2013-07-06 07:46:00,
2013-07-06 03:56:00,73.6,54.9,30.21,North,353,0.0,0.0,52,0.00,,,0.00,VWS V12.08,2013-07-06 07:56:00,
2013-07-06 04:04:00,73.6,54.9,30.21,North,353,0.0,0.0,52,0.00,,,0.00,VWS V12.08,2013-07-06 08:04:00,
2013-07-06 04:11:00,73.4,55.2,30.21,North,353,0.0,0.0,53,0.00,,,0.00,VWS V12.08,2013-07-06 08:11:00,
2013-07-06 04:16:00,73.4,55.8,30.21,ESE,117,0.0,0.0,54,0.00,,,0.00,VWS V12.08,2013-07-06 08:16:00,
2013-07-06 04:26:00,73.2,56.1,30.18,SW,231,0.0,0.0,55,0.00,,,0.00,VWS V12.08,2013-07-06 08:26:00,
2013-07-06 04:31:00,73.2,56.1,30.18,SW,231,0.0,0.0,55,0.00,,,0.00,VWS V12.08,2013-07-06 08:31:00,
2013-07-06 04:43:00,73.0,56.4,30.18,SW,231,0.0,0.0,56,0.00,,,0.00,VWS V12.08,2013-07-06 08:43:00,
2013-07-06 04:51:00,73.0,56.9,30.21,SW,231,0.0,0.0,57,0.00,,,0.00,VWS V12.08,2013-07-06 08:51:00,
2013-07-06 05:04:00,73.0,57.4,30.21,SW,231,0.0,0.0,58,0.00,,,0.00,VWS V12.08,2013-07-06 09:04:00,
2013-07-06 05:11:00,73.0,57.4,30.18,SW,231,0.0,0.0,58,0.00,,,0.00,VWS V12.08,2013-07-06 09:11:00,
2013-07-06 05:16:00,73.0,57.4,30.18,SW,231,0.0,0.0,58,0.00,,,0.00,VWS V12.08,2013-07-06 09:16:00,
2013-07-06 05:26:00,73.2,57.6,30.18,SW,231,0.0,0.0,58,0.00,,,0.00,VWS V12.08,2013-07-06 09:26:00,
2013-07-06 05:35:00,73.2,57.6,30.18,SW,231,0.0,0.0,58,0.00,,,0.00,VWS V12.08,2013-07-06 09:35:00,
2013-07-06 05:40:00,73.4,57.7,30.18,WNW,294,0.0,0.0,58,0.00,,,0.00,VWS V12.08,2013-07-06 09:40:00,
2013-07-06 05:45:00,73.4,57.3,30.18,WNW,294,0.0,0.0,57,0.00,,,0.00,VWS V12.08,2013-07-06 09:45:00,
2013-07-06 05:55:00,73.6,57.4,30.18,North,0,0.0,0.0,57,0.00,,,0.00,VWS V12.08,2013-07-06 09:55:00,
2013-07-06 06:03:00,73.8,57.6,30.18,WNW,303,0.0,0.0,57,0.00,,,0.00,VWS V12.08,2013-07-06 10:03:00,
2013-07-06 06:10:00,74.1,57.4,30.21,NW,306,0.0,0.0,56,0.00,,,0.00,VWS V12.08,2013-07-06 10:10:00,
2013-07-06 06:15:00,74.3,57.6,30.21,NNW,338,0.0,0.0,56,0.00,,,0.00,VWS V12.08,2013-07-06 10:15:00,
2013-07-06 06:25:00,74.7,56.4,30.21,NW,307,0.0,3.1,53,0.00,,,0.00,VWS V12.08,2013-07-06 10:25:00,
2013-07-06 06:31:00,74.8,56.0,30.21,North,350,0.0,3.1,52,0.00,,,0.00,VWS V12.08,2013-07-06 10:31:00,
2013-07-06 06:40:00,75.2,55.3,30.21,NW,315,2.2,3.1,50,0.00,,,0.00,VWS V12.08,2013-07-06 10:40:00,
2013-07-06 06:46:00,75.6,55.6,30.21,WSW,258,0.0,2.7,50,0.00,,,0.00,VWS V12.08,2013-07-06 10:46:00,
2013-07-06 06:55:00,75.9,55.4,30.21,NW,322,0.0,2.7,49,0.00,,,0.00,VWS V12.08,2013-07-06 10:55:00,
2013-07-06 07:03:00,76.3,55.2,30.21,North,353,0.0,2.7,48,0.00,,,0.00,VWS V12.08,2013-07-06 11:03:00,
2013-07-06 07:10:00,77.0,54.1,30.21,NW,317,0.0,2.7,45,0.00,,,0.00,VWS V12.08,2013-07-06 11:10:00,
2013-07-06 07:16:00,77.4,53.1,30.21,NNW,335,0.0,3.6,43,0.00,,,0.00,VWS V12.08,2013-07-06 11:16:00,
2013-07-06 07:25:00,77.7,52.8,30.21,NW,316,0.0,2.7,42,0.00,,,0.00,VWS V12.08,2013-07-06 11:25:00,
2013-07-06 07:31:00,78.1,53.2,30.21,NNW,329,0.0,3.1,42,0.00,,,0.00,VWS V12.08,2013-07-06 11:31:00,
2013-07-06 07:40:00,78.4,52.8,30.21,NNW,334,2.7,3.1,41,0.00,,,0.00,VWS V12.08,2013-07-06 11:40:00,
2013-07-06 07:46:00,78.8,53.1,30.21,WSW,243,0.0,3.1,41,0.00,,,0.00,VWS V12.08,2013-07-06 11:46:00,
2013-07-06 07:55:00,79.2,52.1,30.21,NW,325,0.0,4.0,39,0.00,,,0.00,VWS V12.08,2013-07-06 11:55:00,
2013-07-06 08:04:00,79.3,51.5,30.21,North,2,0.0,4.0,38,0.00,,,0.00,VWS V12.08,2013-07-06 12:04:00,
2013-07-06 08:10:00,79.9,52.0,30.21,WSW,252,0.0,2.7,38,0.00,,,0.00,VWS V12.08,2013-07-06 12:10:00,
2013-07-06 08:16:00,80.1,52.2,30.21,West,278,0.0,2.7,38,0.00,,,0.00,VWS V12.08,2013-07-06 12:16:00,
2013-07-06 08:25:00,80.6,51.2,30.21,West,265,0.0,2.2,36,0.00,,,0.00,VWS V12.08,2013-07-06 12:25:00,
2013-07-06 08:31:00,81.0,49.2,30.21,North,0,3.1,4.0,33,0.00,,,0.00,VWS V12.08,2013-07-06 12:31:00,
2013-07-06 08:40:00,81.7,49.8,30.21,North,7,0.0,4.0,33,0.00,,,0.00,VWS V12.08,2013-07-06 12:40:00,
2013-07-06 08:46:00,82.0,50.1,30.21,NW,320,0.0,2.2,33,0.00,,,0.00,VWS V12.08,2013-07-06 12:46:00,
2013-07-06 08:55:00,82.6,49.8,30.18,NNW,336,0.0,2.7,32,0.00,,,0.00,VWS V12.08,2013-07-06 12:55:00,
2013-07-06 09:04:00,82.9,49.2,30.18,SW,228,0.0,2.7,31,0.00,,,0.00,VWS V12.08,2013-07-06 13:04:00,
2013-07-06 09:10:00,83.7,49.0,30.18,East,90,0.0,2.2,30,0.00,,,0.00,VWS V12.08,2013-07-06 13:10:00,
2013-07-06 09:16:00,84.0,49.3,30.18,North,4,0.0,2.2,30,0.00,,,0.00,VWS V12.08,2013-07-06 13:16:00,
2013-07-06 09:25:00,84.7,49.0,30.18,ESE,111,0.0,3.1,29,0.00,,,0.00,VWS V12.08,2013-07-06 13:25:00,
2013-07-06 09:31:00,85.1,48.4,30.18,NNW,330,0.0,3.1,28,0.00,,,0.00,VWS V12.08,2013-07-06 13:31:00,
2013-07-06 09:40:00,85.5,41.1,30.18,NW,326,0.0,3.6,21,0.00,,,0.00,VWS V12.08,2013-07-06 13:40:00,
2013-07-06 09:46:00,86.2,42.9,30.18,SE,141,0.0,2.7,22,0.00,,,0.00,VWS V12.08,2013-07-06 13:46:00,
2013-07-06 09:55:00,86.5,40.8,30.18,NNE,21,3.1,3.1,20,0.00,,,0.00,VWS V12.08,2013-07-06 13:55:00,
2013-07-06 10:04:00,86.9,39.7,30.18,NW,317,0.0,4.0,19,0.00,,,0.00,VWS V12.08,2013-07-06 14:04:00,
2013-07-06 10:10:00,87.3,40.0,30.18,West,259,0.0,3.1,19,0.00,,,0.00,VWS V12.08,2013-07-06 14:10:00,
2013-07-06 10:16:00,87.6,40.3,30.18,WSW,258,2.2,3.1,19,0.00,,,0.00,VWS V12.08,2013-07-06 14:16:00,
2013-07-06 10:25:00,88.2,31.2,30.18,North,3,0.0,3.1,13,0.00,,,0.00,VWS V12.08,2013-07-06 14:25:00,
2013-07-06 10:31:00,88.3,24.9,30.18,NW,321,2.2,3.1,10,0.00,,,0.00,VWS V12.08,2013-07-06 14:31:00,
2013-07-06 10:41:00,88.7,31.6,30.18,West,274,0.0,4.0,13,0.00,,,0.00,VWS V12.08,2013-07-06 14:41:00,
2013-07-06 10:46:00,88.9,20.0,30.18,North,353,0.0,3.1,8,0.00,,,0.00,VWS V12.08,2013-07-06 14:46:00,
2013-07-06 10:56:00,89.1,20.2,30.18,North,353,0.0,3.6,8,0.00,,,0.00,VWS V12.08,2013-07-06 14:56:00,
2013-07-06 11:04:00,89.4,20.4,30.18,NNW,338,0.0,3.6,8,0.00,,,0.00,VWS V12.08,2013-07-06 15:04:00,
2013-07-06 11:11:00,89.6,9.8,30.18,NW,320,0.0,4.0,5,0.00,,,0.00,VWS V12.08,2013-07-06 15:11:00,
2013-07-06 11:16:00,89.8,26.0,30.18,NW,325,0.0,4.0,10,0.00,,,0.00,VWS V12.08,2013-07-06 15:16:00,
2013-07-06 11:26:00,90.3,26.4,30.15,NE,53,0.0,3.1,10,0.00,,,0.00,VWS V12.08,2013-07-06 15:26:00,
2013-07-06 11:31:00,90.7,26.7,30.15,SSW,200,0.0,3.6,10,0.00,,,0.00,VWS V12.08,2013-07-06 15:31:00,
2013-07-06 11:41:00,91.0,27.0,30.15,West,278,0.0,3.6,10,0.00,,,0.00,VWS V12.08,2013-07-06 15:41:00,
2013-07-06 11:46:00,90.7,18.2,30.15,NW,317,0.0,2.7,7,0.00,,,0.00,VWS V12.08,2013-07-06 15:46:00,
2013-07-06 11:56:00,89.6,17.5,30.15,North,0,0.0,2.7,7,0.00,,,0.00,VWS V12.08,2013-07-06 15:56:00,
2013-07-06 12:04:00,90.1,30.7,30.15,NW,326,0.0,2.7,12,0.00,,,0.00,VWS V12.08,2013-07-06 16:04:00,
2013-07-06 12:11:00,90.9,36.9,30.15,WNW,289,0.0,2.2,15,0.00,,,0.00,VWS V12.08,2013-07-06 16:11:00,
2013-07-06 12:16:00,91.2,37.2,30.15,East,95,0.0,3.1,15,0.00,,,0.00,VWS V12.08,2013-07-06 16:16:00,
2013-07-06 12:31:00,91.9,36.0,30.15,SSE,157,0.0,4.0,14,0.00,,,0.00,VWS V12.08,2013-07-06 16:31:00,
2013-07-06 12:40:00,92.3,32.4,30.15,NNW,341,0.0,4.0,12,0.00,,,0.00,VWS V12.08,2013-07-06 16:40:00,
2013-07-06 12:45:00,92.1,36.1,30.15,ESE,111,0.0,0.0,14,0.00,,,0.00,VWS V12.08,2013-07-06 16:45:00,
2013-07-06 13:04:00,92.5,25.5,30.15,ENE,72,0.0,0.0,9,0.00,,,0.00,VWS V12.08,2013-07-06 17:04:00,
2013-07-06 13:10:00,92.5,19.6,30.15,SW,220,0.0,0.0,7,0.00,,,0.00,VWS V12.08,2013-07-06 17:10:00,
2013-07-06 13:15:00,92.8,32.8,30.15,SE,127,0.0,0.0,12,0.00,,,0.00,VWS V12.08,2013-07-06 17:15:00,
2013-07-06 13:25:00,92.8,19.8,30.15,SSE,165,4.9,4.9,7,0.00,,,0.00,VWS V12.08,2013-07-06 17:25:00,
2013-07-06 13:31:00,92.7,25.6,30.15,ESE,118,0.0,4.9,9,0.00,,,0.00,VWS V12.08,2013-07-06 17:31:00,
2013-07-06 13:40:00,92.7,25.6,30.15,WSW,243,0.0,4.9,9,0.00,,,0.00,VWS V12.08,2013-07-06 17:40:00,
2013-07-06 13:46:00,92.5,32.5,30.15,SSE,157,0.0,2.7,12,0.00,,,0.00,VWS V12.08,2013-07-06 17:46:00,
2013-07-06 13:55:00,92.3,25.4,30.15,NW,325,0.0,2.7,9,0.00,,,0.00,VWS V12.08,2013-07-06 17:55:00,
2013-07-06 14:04:00,92.5,32.5,30.15,NNW,336,0.0,2.7,12,0.00,,,0.00,VWS V12.08,2013-07-06 18:04:00,
2013-07-06 14:10:00,91.6,31.9,30.12,West,271,0.0,2.7,12,0.00,,,0.00,VWS V12.08,2013-07-06 18:10:00,
2013-07-06 14:20:00,89.8,39.2,30.15,NE,50,0.0,2.7,17,0.00,,,0.00,VWS V12.08,2013-07-06 18:20:00,
2013-07-06 14:35:00,90.1,36.3,30.12,WSW,237,0.0,2.7,15,0.00,,,0.00,VWS V12.08,2013-07-06 18:35:00,
2013-07-06 14:41:00,90.3,39.6,30.12,SE,143,0.0,0.0,17,0.00,,,0.00,VWS V12.08,2013-07-06 18:41:00,
2013-07-06 15:10:00,90.7,31.2,30.12,SE,127,0.0,0.0,12,0.00,,,0.00,VWS V12.08,2013-07-06 19:10:00,
2013-07-06 15:20:00,90.7,31.2,30.12,SSW,210,0.0,0.0,12,0.00,,,0.00,VWS V12.08,2013-07-06 19:20:00,
2013-07-06 15:31:00,91.0,37.0,30.12,WSW,239,0.0,2.7,15,0.00,,,0.00,VWS V12.08,2013-07-06 19:31:00,
2013-07-06 15:40:00,91.2,27.1,30.12,SE,138,2.2,2.7,10,0.00,,,0.00,VWS V12.08,2013-07-06 19:40:00,
2013-07-06 15:46:00,91.2,37.2,30.12,SSE,159,0.0,2.2,15,0.00,,,0.00,VWS V12.08,2013-07-06 19:46:00,
2013-07-06 16:04:00,90.7,31.2,30.12,NNW,346,2.7,3.1,12,0.00,,,0.00,VWS V12.08,2013-07-06 20:04:00,
2013-07-06 16:10:00,90.9,31.3,30.12,South,189,0.0,2.7,12,0.00,,,0.00,VWS V12.08,2013-07-06 20:10:00,
2013-07-06 16:16:00,90.7,18.2,30.12,North,4,2.2,2.7,7,0.00,,,0.00,VWS V12.08,2013-07-06 20:16:00,
2013-07-06 16:25:00,90.7,31.2,30.12,West,279,0.0,0.0,12,0.00,,,0.00,VWS V12.08,2013-07-06 20:25:00,
2013-07-06 16:31:00,91.9,25.1,30.12,South,179,0.0,0.0,9,0.00,,,0.00,VWS V12.08,2013-07-06 20:31:00,
2013-07-06 16:40:00,91.2,27.1,30.12,East,84,0.0,2.7,10,0.00,,,0.00,VWS V12.08,2013-07-06 20:40:00,
2013-07-06 16:47:00,90.9,26.8,30.12,SW,216,0.0,0.0,10,0.00,,,0.00,VWS V12.08,2013-07-06 20:47:00,
2013-07-06 16:55:00,90.9,18.4,30.12,East,97,0.0,0.0,7,0.00,,,0.00,VWS V12.08,2013-07-06 20:55:00,
2013-07-06 17:04:00,89.6,17.5,30.12,NW,307,0.0,0.0,7,0.00,,,0.00,VWS V12.08,2013-07-06 21:04:00,
2013-07-06 17:16:00,87.6,38.9,30.09,ENE,62,0.0,2.2,18,0.00,,,0.00,VWS V12.08,2013-07-06 21:16:00,
2013-07-06 17:21:00,87.1,39.9,30.09,SSW,203,0.0,0.0,19,0.00,,,0.00,VWS V12.08,2013-07-06 21:21:00,
2013-07-06 17:33:00,87.4,40.2,30.09,North,9,0.0,0.0,19,0.00,,,0.00,VWS V12.08,2013-07-06 21:33:00,
2013-07-06 17:41:00,87.6,41.6,30.09,NNE,22,0.0,0.0,20,0.00,,,0.00,VWS V12.08,2013-07-06 21:41:00,
2013-07-06 17:46:00,87.8,40.5,30.09,NNE,22,0.0,0.0,19,0.00,,,0.00,VWS V12.08,2013-07-06 21:46:00,
2013-07-06 17:55:00,88.2,42.1,30.09,South,175,0.0,3.6,20,0.00,,,0.00,VWS V12.08,2013-07-06 21:55:00,
2013-07-06 18:04:00,88.2,42.1,30.09,WNW,282,0.0,3.6,20,0.00,,,0.00,VWS V12.08,2013-07-06 22:04:00,
2013-07-06 18:11:00,88.2,42.1,30.09,NNE,15,0.0,0.0,20,0.00,,,0.00,VWS V12.08,2013-07-06 22:11:00,
2013-07-06 18:21:00,88.0,41.9,30.09,SE,139,0.0,0.0,20,0.00,,,0.00,VWS V12.08,2013-07-06 22:21:00,
2013-07-06 18:31:00,88.2,42.1,30.09,SE,139,0.0,0.0,20,0.00,,,0.00,VWS V12.08,2013-07-06 22:31:00,
2013-07-06 18:41:00,87.6,41.6,30.09,West,280,0.0,0.0,20,0.00,,,0.00,VWS V12.08,2013-07-06 22:41:00,
2013-07-06 18:46:00,87.3,41.3,30.09,NNW,348,0.0,0.0,20,0.00,,,0.00,VWS V12.08,2013-07-06 22:46:00,
2013-07-06 19:04:00,86.2,41.7,30.09,NNW,348,0.0,0.0,21,0.00,,,0.00,VWS V12.08,2013-07-06 23:04:00,
2013-07-06 19:12:00,85.5,44.6,30.09,NNW,348,0.0,0.0,24,0.00,,,0.00,VWS V12.08,2013-07-06 23:12:00,
2013-07-06 19:21:00,84.9,46.2,30.09,NNW,348,0.0,0.0,26,0.00,,,0.00,VWS V12.08,2013-07-06 23:21:00,
2013-07-06 19:31:00,84.4,47.8,30.09,NNW,348,0.0,0.0,28,0.00,,,0.00,VWS V12.08,2013-07-06 23:31:00,
2013-07-06 19:41:00,84.0,48.4,30.09,NNW,348,0.0,0.0,29,0.00,,,0.00,VWS V12.08,2013-07-06 23:41:00,
2013-07-06 19:50:00,83.7,48.1,30.09,NNW,348,0.0,0.0,29,0.00,,,0.00,VWS V12.08,2013-07-06 23:50:00,
2013-07-06 20:04:00,83.3,47.8,30.09,NW,326,0.0,0.0,29,0.00,,,0.00,VWS V12.08,2013-07-07 00:04:00,
2013-07-06 20:10:00,82.9,47.5,30.09,NW,326,0.0,0.0,29,0.00,,,0.00,VWS V12.08,2013-07-07 00:10:00,
2013-07-06 20:20:00,82.6,47.1,30.09,NW,326,0.0,0.0,29,0.00,,,0.00,VWS V12.08,2013-07-07 00:20:00,
2013-07-06 20:35:00,82.0,47.6,30.09,NW,326,0.0,0.0,30,0.00,,,0.00,VWS V12.08,2013-07-07 00:35:00,
2013-07-06 20:40:00,81.9,47.4,30.09,NW,326,0.0,0.0,30,0.00,,,0.00,VWS V12.08,2013-07-07 00:40:00,
2013-07-06 20:50:00,81.5,48.0,30.09,NW,326,0.0,0.0,31,0.00,,,0.00,VWS V12.08,2013-07-07 00:50:00,
2013-07-06 21:04:00,81.3,47.0,30.09,NW,326,0.0,0.0,30,0.00,,,0.00,VWS V12.08,2013-07-07 01:04:00,
2013-07-06 21:10:00,81.1,47.7,30.09,NW,326,0.0,0.0,31,0.00,,,0.00,VWS V12.08,2013-07-07 01:10:00,
2013-07-06 21:20:00,81.0,47.5,30.12,NW,326,0.0,0.0,31,0.00,,,0.00,VWS V12.08,2013-07-07 01:20:00,
2013-07-06 21:31:00,80.6,48.0,30.12,NW,326,0.0,0.0,32,0.00,,,0.00,VWS V12.08,2013-07-07 01:31:00,
2013-07-06 21:41:00,80.2,48.5,30.12,NW,326,0.0,0.0,33,0.00,,,0.00,VWS V12.08,2013-07-07 01:41:00,
2013-07-06 21:55:00,79.9,49.0,30.12,NW,326,0.0,0.0,34,0.00,,,0.00,VWS V12.08,2013-07-07 01:55:00,
2013-07-06 22:04:00,79.7,49.7,30.12,NW,326,0.0,0.0,35,0.00,,,0.00,VWS V12.08,2013-07-07 02:04:00,
2013-07-06 22:10:00,79.5,50.2,30.12,NW,326,0.0,0.0,36,0.00,,,0.00,VWS V12.08,2013-07-07 02:10:00,
2013-07-06 22:20:00,79.3,50.8,30.12,NW,326,0.0,0.0,37,0.00,,,0.00,VWS V12.08,2013-07-07 02:20:00,
2013-07-06 22:25:00,79.2,50.7,30.12,NW,326,0.0,0.0,37,0.00,,,0.00,VWS V12.08,2013-07-07 02:25:00,
2013-07-06 22:41:00,79.0,49.8,30.12,NW,326,0.0,0.0,36,0.00,,,0.00,VWS V12.08,2013-07-07 02:41:00,
2013-07-06 22:46:00,79.0,50.5,30.12,NW,326,0.0,0.0,37,0.00,,,0.00,VWS V12.08,2013-07-07 02:46:00,
2013-07-06 22:51:00,78.8,50.4,30.12,NW,326,0.0,0.0,37,0.00,,,0.00,VWS V12.08,2013-07-07 02:51:00,
2013-07-06 23:04:00,78.6,50.2,30.12,NW,326,0.0,0.0,37,0.00,,,0.00,VWS V12.08,2013-07-07 03:04:00,
2013-07-06 23:16:00,78.4,50.0,30.12,NW,326,0.0,0.0,37,0.00,,,0.00,VWS V12.08,2013-07-07 03:16:00,
2013-07-06 23:25:00,78.3,50.6,30.12,NW,326,0.0,0.0,38,0.00,,,0.00,VWS V12.08,2013-07-07 03:25:00,
2013-07-06 23:31:00,78.1,50.4,30.12,NW,326,0.0,0.0,38,0.00,,,0.00,VWS V12.08,2013-07-07 03:31:00,
2013-07-06 23:41:00,77.7,50.8,30.12,NW,326,0.0,0.0,39,0.00,,,0.00,VWS V12.08,2013-07-07 03:41:00,
2013-07-06 23:46:00,77.5,51.3,30.12,NW,326,0.0,0.0,40,0.00,,,0.00,VWS V12.08,2013-07-07 03:46:00,
2013-07-06 23:55:00,77.4,51.8,30.12,NW,326,0.0,0.0,41,0.00,,,0.00,VWS V12.08,2013-07-07 03:55:00,